Time;durP1;ratioP1;P1;durP2;ratioP2;P2;SDS_P1;SDS_P2;PMS_P1;PMS_P2;Temp;Humidity;BMP_temperature;BMP_pressure;BME280_temperature;BME280_humidity;BME280_pressure;Samples;Min_cycle;Max_cycle;Signal;HPM_P1;HPM_P2
2021/09/28 00:00:56;;;;;;;11.90;5.60;;;11.60;99.90;;;;;;4953120;28;20214;-62
2021/09/28 00:03:22;;;;;;;14.67;5.43;;;11.70;99.90;;;;;;4954443;29;20209;-62
2021/09/28 00:05:50;;;;;;;12.73;5.53;;;11.60;99.90;;;;;;4953836;29;20278;-61
2021/09/28 00:08:17;;;;;;;15.17;5.77;;;11.60;99.90;;;;;;4953193;29;20597;-63
2021/09/28 00:10:44;;;;;;;14.57;6.00;;;11.60;99.90;;;;;;4953975;29;20284;-62
2021/09/28 00:13:10;;;;;;;15.17;5.63;;;11.50;99.90;;;;;;4954217;29;20214;-62
2021/09/28 00:15:37;;;;;;;17.03;5.90;;;11.50;99.90;;;;;;4953810;29;20273;-61
2021/09/28 00:18:04;;;;;;;16.93;5.80;;;11.50;99.90;;;;;;4953739;29;20236;-63
2021/09/28 00:20:36;;;;;;;18.80;5.60;;;11.50;99.90;;;;;;4953968;29;20241;-63
2021/09/28 00:23:06;;;;;;;16.83;5.63;;;11.50;99.90;;;;;;4953969;29;20613;-63
2021/09/28 00:25:32;;;;;;;14.90;5.33;;;11.50;99.90;;;;;;4953294;29;20666;-63
2021/09/28 00:28:00;;;;;;;14.93;5.17;;;11.50;99.90;;;;;;4953922;29;20264;-63
2021/09/28 00:30:26;;;;;;;14.73;5.10;;;11.50;99.90;;;;;;4953717;29;20260;-63
2021/09/28 00:32:53;;;;;;;20.20;5.57;;;11.40;99.90;;;;;;4953632;29;20210;-63
2021/09/28 00:35:20;;;;;;;14.30;5.27;;;11.40;99.90;;;;;;4953060;29;20282;-61
2021/09/28 00:37:46;;;;;;;12.93;5.77;;;11.40;99.90;;;;;;4953058;29;20237;-62
2021/09/28 00:40:14;;;;;;;14.27;5.67;;;11.30;99.90;;;;;;4954002;29;20209;-63
2021/09/28 00:42:41;;;;;;;15.03;5.50;;;11.30;99.90;;;;;;4953603;29;20740;-62
2021/09/28 00:45:09;;;;;;;14.40;5.40;;;11.30;99.90;;;;;;4952899;29;20214;-62
2021/09/28 00:47:36;;;;;;;17.87;5.83;;;11.30;99.90;;;;;;4952658;29;20237;-62
2021/09/28 00:50:05;;;;;;;15.33;5.40;;;11.20;99.90;;;;;;4953299;29;20577;-63
2021/09/28 00:52:32;;;;;;;13.17;5.40;;;11.20;99.90;;;;;;4953379;29;20236;-63
2021/09/28 00:54:59;;;;;;;15.27;5.47;;;11.20;99.90;;;;;;4953302;29;20216;-63
2021/09/28 00:57:27;;;;;;;19.63;5.63;;;11.20;99.90;;;;;;4952125;29;20611;-63
2021/09/28 00:59:55;;;;;;;19.20;5.10;;;11.20;99.90;;;;;;4953334;29;20674;-63
2021/09/28 01:02:22;;;;;;;13.20;5.33;;;11.10;99.90;;;;;;4953573;29;20205;-63
2021/09/28 01:04:49;;;;;;;14.50;5.40;;;11.10;99.90;;;;;;4952862;29;20677;-63
2021/09/28 01:07:16;;;;;;;21.43;5.30;;;11.10;99.90;;;;;;4953446;29;20248;-63
2021/09/28 01:09:43;;;;;;;16.47;5.57;;;11.10;99.90;;;;;;4953070;29;20210;-62
2021/09/28 01:12:11;;;;;;;15.33;5.07;;;11.10;99.90;;;;;;4953732;28;20288;-63
2021/09/28 01:14:41;;;;;;;19.90;5.20;;;11.10;99.90;;;;;;4956453;29;20237;-63
2021/09/28 01:17:11;;;;;;;18.07;5.57;;;11.10;99.90;;;;;;4957118;29;20673;-62
2021/09/28 01:19:37;;;;;;;17.90;5.23;;;11.10;99.90;;;;;;4957058;29;20216;-63
2021/09/28 01:22:07;;;;;;;16.60;4.70;;;11.00;99.90;;;;;;4957169;29;20255;-63
2021/09/28 01:24:35;;;;;;;20.33;5.80;;;11.00;99.90;;;;;;4956980;29;20279;-62
2021/09/28 01:27:02;;;;;;;15.13;4.60;;;11.00;99.90;;;;;;4956867;29;20257;-62
2021/09/28 01:29:29;;;;;;;12.60;4.43;;;11.00;99.90;;;;;;4956947;29;20256;-62
2021/09/28 01:31:56;;;;;;;17.03;5.10;;;11.00;99.90;;;;;;4956077;29;20229;-62
2021/09/28 01:34:23;;;;;;;16.60;4.50;;;11.00;99.90;;;;;;4956379;29;20209;-63
2021/09/28 01:36:50;;;;;;;17.47;4.83;;;11.00;99.90;;;;;;4956729;29;20214;-61
2021/09/28 01:39:19;;;;;;;15.10;4.13;;;11.00;99.90;;;;;;4955849;29;20664;-63
2021/09/28 01:41:46;;;;;;;17.40;4.40;;;11.00;99.90;;;;;;4956099;29;20209;-63
2021/09/28 01:44:15;;;;;;;14.10;4.03;;;11.00;99.90;;;;;;4955687;29;20236;-63
2021/09/28 01:46:44;;;;;;;17.20;4.20;;;11.00;99.90;;;;;;4955362;29;20209;-61
2021/09/28 01:49:13;;;;;;;9.03;3.73;;;10.90;99.90;;;;;;4955352;29;20651;-62
2021/09/28 01:51:40;;;;;;;16.50;3.90;;;10.90;99.90;;;;;;4956398;29;20252;-61
2021/09/28 01:54:08;;;;;;;15.53;4.03;;;10.90;99.90;;;;;;4956589;29;20209;-63
2021/09/28 01:56:37;;;;;;;14.03;4.07;;;10.90;99.90;;;;;;4954988;29;20259;-62
2021/09/28 01:59:05;;;;;;;15.47;4.03;;;10.90;99.90;;;;;;4955762;29;20233;-62
2021/09/28 02:01:32;;;;;;;16.53;4.47;;;10.90;99.90;;;;;;4955601;29;20209;-61
2021/09/28 02:03:58;;;;;;;14.37;4.67;;;10.90;99.90;;;;;;4956514;29;20205;-63
2021/09/28 02:06:25;;;;;;;19.60;5.17;;;10.90;99.90;;;;;;4955469;29;20213;-63
2021/09/28 02:08:52;;;;;;;18.07;4.60;;;10.90;99.90;;;;;;4956088;29;20232;-62
2021/09/28 02:11:20;;;;;;;17.07;4.03;;;10.90;99.90;;;;;;4955880;29;20276;-62
2021/09/28 02:13:49;;;;;;;13.83;4.33;;;10.90;99.90;;;;;;4955993;29;20213;-62
2021/09/28 02:16:17;;;;;;;14.33;5.03;;;10.90;99.90;;;;;;4955897;29;20217;-62
2021/09/28 02:18:44;;;;;;;18.10;4.77;;;10.80;99.90;;;;;;4956105;29;20652;-62
2021/09/28 02:21:10;;;;;;;16.03;5.03;;;10.80;99.90;;;;;;4956132;29;20209;-61
2021/09/28 02:23:37;;;;;;;14.13;4.67;;;10.80;99.90;;;;;;4955795;28;20216;-62
2021/09/28 02:26:04;;;;;;;22.60;5.03;;;10.80;99.90;;;;;;4954634;29;20256;-63
2021/09/28 02:28:30;;;;;;;27.87;5.57;;;10.80;99.90;;;;;;4955436;29;20295;-63
2021/09/28 02:30:58;;;;;;;19.33;5.67;;;10.80;99.90;;;;;;4955897;29;20232;-62
2021/09/28 02:33:25;;;;;;;15.37;5.17;;;10.80;99.90;;;;;;4955136;29;20611;-62
2021/09/28 02:35:51;;;;;;;20.57;5.53;;;10.80;99.90;;;;;;4954805;29;20209;-62
2021/09/28 02:38:18;;;;;;;17.67;5.37;;;10.80;99.90;;;;;;4954861;29;20225;-62
2021/09/28 02:40:45;;;;;;;13.90;5.67;;;10.80;99.90;;;;;;4955347;29;20608;-62
2021/09/28 02:43:13;;;;;;;13.27;5.20;;;10.80;99.90;;;;;;4955504;29;20272;-62
2021/09/28 02:45:40;;;;;;;12.87;5.47;;;10.80;99.90;;;;;;4954078;29;20244;-62
2021/09/28 02:48:09;;;;;;;10.73;4.67;;;10.80;99.90;;;;;;4955603;29;20789;-62
2021/09/28 02:50:35;;;;;;;17.80;5.43;;;10.80;99.90;;;;;;4955151;29;20636;-61
2021/09/28 02:53:02;;;;;;;16.57;5.63;;;10.80;99.90;;;;;;4955576;29;20237;-62
2021/09/28 02:55:29;;;;;;;20.70;5.57;;;10.70;99.90;;;;;;4954450;29;20217;-63
2021/09/28 02:57:56;;;;;;;14.20;5.53;;;10.70;99.90;;;;;;4954684;29;20724;-62
2021/09/28 03:00:23;;;;;;;12.97;5.53;;;10.70;99.90;;;;;;4955483;29;20205;-63
2021/09/28 03:02:49;;;;;;;14.80;5.63;;;10.70;99.90;;;;;;4955355;29;20220;-61
2021/09/28 03:05:17;;;;;;;13.57;5.30;;;10.70;99.90;;;;;;4954035;29;20210;-62
2021/09/28 03:07:44;;;;;;;18.43;5.57;;;10.70;99.90;;;;;;4954715;29;20224;-62
2021/09/28 03:10:11;;;;;;;16.90;6.27;;;10.70;99.90;;;;;;4954993;29;20209;-62
2021/09/28 03:12:38;;;;;;;21.20;5.73;;;10.70;99.90;;;;;;4955148;29;20240;-61
2021/09/28 03:15:05;;;;;;;13.27;5.40;;;10.60;99.90;;;;;;4954731;29;20209;-63
2021/09/28 03:17:32;;;;;;;17.87;5.70;;;10.70;99.90;;;;;;4954721;29;20377;-62
2021/09/28 03:19:59;;;;;;;15.93;5.70;;;10.70;99.90;;;;;;4954609;29;20272;-62
2021/09/28 03:22:27;;;;;;;18.77;5.67;;;10.70;99.90;;;;;;4954728;29;20217;-62
2021/09/28 03:24:53;;;;;;;17.43;6.43;;;10.70;99.90;;;;;;4954512;29;20212;-62
2021/09/28 03:27:20;;;;;;;25.07;5.73;;;10.70;99.90;;;;;;4954023;29;20213;-62
2021/09/28 03:29:47;;;;;;;14.67;5.27;;;10.70;99.90;;;;;;4954108;29;20670;-62
2021/09/28 03:32:13;;;;;;;15.60;5.63;;;10.70;99.90;;;;;;4954738;29;20228;-62
2021/09/28 03:34:40;;;;;;;19.10;5.83;;;10.70;99.90;;;;;;4953493;29;20357;-62
2021/09/28 03:37:07;;;;;;;12.97;6.00;;;10.60;99.90;;;;;;4953547;28;20212;-62
2021/09/28 03:39:35;;;;;;;20.03;6.70;;;10.60;99.90;;;;;;4954912;29;20213;-62
2021/09/28 03:42:01;;;;;;;19.30;6.97;;;10.60;99.90;;;;;;4953318;29;20670;-63
2021/09/28 03:44:28;;;;;;;14.77;5.63;;;10.60;99.90;;;;;;4954574;29;20268;-63
2021/09/28 03:46:55;;;;;;;20.57;7.03;;;10.60;99.90;;;;;;4953093;29;20260;-63
2021/09/28 03:49:21;;;;;;;18.80;6.03;;;10.60;99.90;;;;;;4954206;29;20257;-63
2021/09/28 03:51:48;;;;;;;18.17;7.70;;;10.60;99.90;;;;;;4954366;29;20237;-62
2021/09/28 03:54:14;;;;;;;15.10;6.00;;;10.60;99.90;;;;;;4954326;29;20217;-62
2021/09/28 03:56:42;;;;;;;16.83;5.80;;;10.60;99.90;;;;;;4953447;29;20594;-62
2021/09/28 03:59:09;;;;;;;16.13;6.40;;;10.60;99.90;;;;;;4954101;29;20229;-63
2021/09/28 04:01:36;;;;;;;13.97;5.37;;;10.60;99.90;;;;;;4954199;29;20212;-63
2021/09/28 04:04:02;;;;;;;18.23;5.50;;;10.60;99.90;;;;;;4953929;29;20745;-63
2021/09/28 04:06:29;;;;;;;17.20;6.00;;;10.60;99.90;;;;;;4954034;29;20220;-63
2021/09/28 04:08:56;;;;;;;13.70;4.80;;;10.60;99.90;;;;;;4954072;29;20224;-62
2021/09/28 04:11:22;;;;;;;15.60;5.03;;;10.60;99.90;;;;;;4953936;29;20761;-63
2021/09/28 04:13:50;;;;;;;19.87;5.70;;;10.60;99.90;;;;;;4954364;29;20342;-62
2021/09/28 04:16:19;;;;;;;18.10;5.70;;;10.60;99.90;;;;;;4954882;28;20387;-62
2021/09/28 04:18:46;;;;;;;19.73;4.90;;;10.60;99.90;;;;;;4948031;29;20311;-63
2021/09/28 04:21:12;;;;;;;12.97;5.67;;;10.50;99.90;;;;;;4940215;29;20299;-62
2021/09/28 04:23:39;;;;;;;20.07;5.40;;;10.50;99.90;;;;;;4934638;29;20213;-62
2021/09/28 04:26:06;;;;;;;16.40;5.40;;;10.50;99.90;;;;;;4934059;29;20747;-62
2021/09/28 04:28:34;;;;;;;13.33;5.03;;;10.50;99.90;;;;;;4934650;29;20230;-62
2021/09/28 04:31:02;;;;;;;19.47;6.07;;;10.50;99.90;;;;;;4934190;29;20209;-62
2021/09/28 04:33:28;;;;;;;13.37;5.47;;;10.50;99.90;;;;;;4933080;29;20213;-62
2021/09/28 04:35:55;;;;;;;17.30;5.53;;;10.50;99.90;;;;;;4933760;29;20638;-62
2021/09/28 04:38:22;;;;;;;19.17;6.00;;;10.50;99.90;;;;;;4934553;29;20233;-62
2021/09/28 04:40:48;;;;;;;17.93;5.47;;;10.50;99.90;;;;;;4934425;29;20213;-62
2021/09/28 04:43:15;;;;;;;14.63;5.57;;;10.50;99.90;;;;;;4934428;29;20271;-62
2021/09/28 04:45:41;;;;;;;16.47;5.50;;;10.50;99.90;;;;;;4933388;29;20217;-62
2021/09/28 04:48:09;;;;;;;13.00;4.53;;;10.50;99.90;;;;;;4935645;29;20297;-61
2021/09/28 04:50:36;;;;;;;14.60;4.93;;;10.40;99.90;;;;;;4938016;29;20238;-61
2021/09/28 04:53:02;;;;;;;14.30;4.87;;;10.40;99.90;;;;;;4938424;29;20288;-62
2021/09/28 04:55:29;;;;;;;19.03;5.23;;;10.40;99.90;;;;;;4937615;29;20209;-62
2021/09/28 04:57:56;;;;;;;17.60;5.10;;;10.40;99.90;;;;;;4938307;29;20237;-62
2021/09/28 05:00:22;;;;;;;12.57;5.07;;;10.40;99.90;;;;;;4937231;29;20213;-62
2021/09/28 05:02:49;;;;;;;16.70;5.37;;;10.40;99.90;;;;;;4939312;29;20262;-62
2021/09/28 05:05:17;;;;;;;15.13;5.20;;;10.30;99.90;;;;;;4956609;29;20284;-63
2021/09/28 05:07:44;;;;;;;17.20;5.30;;;10.30;99.90;;;;;;4956903;29;20590;-63
2021/09/28 05:10:10;;;;;;;13.87;5.43;;;10.40;99.90;;;;;;4956411;29;20209;-62
2021/09/28 05:12:37;;;;;;;23.73;6.23;;;10.30;99.90;;;;;;4956912;29;20224;-63
2021/09/28 05:15:05;;;;;;;14.37;4.70;;;10.30;99.90;;;;;;4956650;29;20213;-64
2021/09/28 05:17:31;;;;;;;17.10;4.93;;;10.30;99.90;;;;;;4941284;29;20718;-67
2021/09/28 05:19:58;;;;;;;24.57;5.47;;;10.30;99.90;;;;;;4935934;28;20637;-68
2021/09/28 05:22:26;;;;;;;14.17;5.00;;;10.30;99.90;;;;;;4937616;29;20259;-61
2021/09/28 05:24:53;;;;;;;17.03;5.30;;;10.30;99.90;;;;;;4937492;29;20566;-62
2021/09/28 05:27:19;;;;;;;16.60;6.03;;;10.30;99.90;;;;;;4937380;29;20245;-61
2021/09/28 05:29:46;;;;;;;20.97;5.93;;;10.20;99.90;;;;;;4937092;29;20264;-61
2021/09/28 05:32:13;;;;;;;16.00;5.10;;;10.20;99.90;;;;;;4937592;29;20229;-61
2021/09/28 05:34:39;;;;;;;15.93;4.83;;;10.30;99.90;;;;;;4937117;29;20678;-61
2021/09/28 05:37:07;;;;;;;14.50;5.27;;;10.30;99.90;;;;;;4939149;29;20209;-62
2021/09/28 05:39:35;;;;;;;16.90;5.20;;;10.20;99.90;;;;;;4956046;29;20209;-60
2021/09/28 05:42:01;;;;;;;21.07;6.13;;;10.30;99.90;;;;;;4955901;29;20212;-61
2021/09/28 05:44:28;;;;;;;17.87;5.40;;;10.30;99.90;;;;;;4956229;29;20205;-61
2021/09/28 05:46:55;;;;;;;17.53;5.27;;;10.30;99.90;;;;;;4956072;29;20213;-60
2021/09/28 05:49:21;;;;;;;12.53;5.00;;;10.30;99.90;;;;;;4956158;29;20239;-61
2021/09/28 05:51:52;;;;;;;15.07;5.03;;;10.30;99.90;;;;;;4955946;29;20236;-62
2021/09/28 05:54:19;;;;;;;18.73;4.90;;;10.20;99.90;;;;;;4955975;29;20209;-62
2021/09/28 05:56:47;;;;;;;16.10;5.03;;;10.30;99.90;;;;;;4955581;29;20221;-61
2021/09/28 05:59:14;;;;;;;19.03;4.63;;;10.30;99.90;;;;;;4955785;28;20288;-63
2021/09/28 06:01:41;;;;;;;19.20;6.43;;;10.20;99.90;;;;;;4955730;29;20212;-62
2021/09/28 06:04:07;;;;;;;14.73;4.90;;;10.30;99.90;;;;;;4943714;29;20638;-62
2021/09/28 06:06:34;;;;;;;15.20;5.03;;;10.30;99.90;;;;;;4936345;29;20208;-62
2021/09/28 06:09:01;;;;;;;15.97;4.80;;;10.30;99.90;;;;;;4936360;29;20237;-63
2021/09/28 06:11:28;;;;;;;15.37;5.03;;;10.30;99.90;;;;;;4936417;29;20989;-62
2021/09/28 06:13:56;;;;;;;17.80;5.27;;;10.40;99.90;;;;;;4936832;29;20629;-62
2021/09/28 06:16:23;;;;;;;17.13;4.57;;;10.40;99.90;;;;;;4936458;29;20206;-61
2021/09/28 06:18:49;;;;;;;14.63;4.67;;;10.50;99.90;;;;;;4953719;29;20224;-60
2021/09/28 06:21:16;;;;;;;16.10;5.00;;;10.50;99.90;;;;;;4955543;29;20635;-61
2021/09/28 06:23:43;;;;;;;19.60;5.43;;;10.50;99.90;;;;;;4955291;29;20256;-61
2021/09/28 06:26:09;;;;;;;15.97;5.20;;;10.50;99.90;;;;;;4955682;29;20256;-62
2021/09/28 06:28:37;;;;;;;15.50;5.73;;;10.50;99.90;;;;;;4955448;29;20233;-63
2021/09/28 06:31:05;;;;;;;17.37;5.50;;;10.60;99.90;;;;;;4955258;29;20213;-62
2021/09/28 06:33:32;;;;;;;14.17;4.80;;;10.60;99.90;;;;;;4955459;29;20233;-62
2021/09/28 06:35:59;;;;;;;15.40;5.10;;;10.60;99.90;;;;;;4954935;29;20216;-62
2021/09/28 06:38:25;;;;;;;14.23;5.03;;;10.70;99.90;;;;;;4955410;29;20259;-61
2021/09/28 06:40:52;;;;;;;12.63;4.57;;;10.70;99.90;;;;;;4955245;29;20213;-61
2021/09/28 06:43:19;;;;;;;13.03;4.57;;;10.80;99.90;;;;;;4955519;29;20209;-64
2021/09/28 06:45:46;;;;;;;15.80;4.90;;;10.80;99.90;;;;;;4954953;29;20209;-64
2021/09/28 06:48:15;;;;;;;13.63;5.03;;;10.90;99.90;;;;;;4955217;29;20228;-64
2021/09/28 06:50:42;;;;;;;11.97;4.70;;;10.90;99.90;;;;;;4954643;29;20213;-63
2021/09/28 06:53:09;;;;;;;16.50;5.07;;;11.00;99.90;;;;;;4954704;29;20229;-62
2021/09/28 06:55:37;;;;;;;13.73;3.97;;;11.00;99.90;;;;;;4954753;29;20213;-63
2021/09/28 06:58:04;;;;;;;14.03;4.33;;;11.10;99.90;;;;;;4954624;29;20272;-63
2021/09/28 07:00:32;;;;;;;11.83;3.53;;;11.10;99.90;;;;;;4954192;29;20217;-61
2021/09/28 07:02:59;;;;;;;11.90;3.30;;;11.20;99.90;;;;;;4935610;29;20599;-61
2021/09/28 07:05:27;;;;;;;12.80;3.40;;;11.20;99.90;;;;;;4935521;29;20205;-62
2021/09/28 07:07:54;;;;;;;11.70;3.40;;;11.30;99.90;;;;;;4935910;29;20235;-62
2021/09/28 07:10:21;;;;;;;17.87;3.47;;;11.40;99.90;;;;;;4934827;29;20213;-62
2021/09/28 07:12:47;;;;;;;9.83;3.70;;;11.50;99.90;;;;;;4935633;29;20236;-63
2021/09/28 07:15:16;;;;;;;11.80;3.47;;;11.50;99.90;;;;;;4935748;29;20675;-65
2021/09/28 07:17:43;;;;;;;12.87;3.57;;;11.60;99.90;;;;;;4935311;29;20261;-64
2021/09/28 07:20:11;;;;;;;13.43;3.90;;;11.70;99.90;;;;;;4934900;29;20879;-63
2021/09/28 07:22:39;;;;;;;13.20;3.63;;;11.70;99.90;;;;;;4935290;29;20620;-62
2021/09/28 07:25:06;;;;;;;11.80;4.00;;;11.80;68.40;;;;;;4935336;29;20283;-66
2021/09/28 07:27:33;;;;;;;9.97;3.50;;;11.90;26.00;;;;;;4934991;29;20225;-63
2021/09/28 07:29:59;;;;;;;16.80;3.97;;;12.00;8.60;;;;;;4935004;29;20219;-67
2021/09/28 07:32:26;;;;;;;8.27;3.00;;;12.00;1.00;;;;;;4934718;29;20276;-66
2021/09/28 07:34:53;;;;;;;8.40;2.77;;;12.10;1.00;;;;;;4934931;29;20298;-65
2021/09/28 07:37:24;;;;;;;12.63;3.10;;;12.10;1.00;;;;;;4935209;29;20212;-63
2021/09/28 07:39:52;;;;;;;10.37;3.00;;;12.20;1.00;;;;;;4934922;29;20299;-66
2021/09/28 07:42:19;;;;;;;7.80;3.03;;;12.20;1.00;;;;;;4935124;29;20579;-67
2021/09/28 07:44:46;;;;;;;8.43;2.90;;;12.30;1.00;;;;;;4934402;29;20213;-67
2021/09/28 07:47:13;;;;;;;8.50;2.50;;;12.40;1.00;;;;;;4938887;29;20643;-68
2021/09/28 07:49:40;;;;;;;13.17;2.70;;;12.50;1.00;;;;;;4953870;29;20617;-67
2021/09/28 07:52:07;;;;;;;11.63;2.80;;;12.60;99.90;;;;;;4953974;29;20213;-67
2021/09/28 07:54:35;;;;;;;10.47;2.70;;;12.60;99.90;;;;;;4953696;29;20237;-61
2021/09/28 07:57:03;;;;;;;10.87;3.03;;;12.70;99.90;;;;;;4953785;29;20314;-62
2021/09/28 07:59:30;;;;;;;10.27;2.73;;;12.80;99.90;;;;;;4953463;29;20304;-62
2021/09/28 08:01:56;;;;;;;8.13;3.10;;;12.90;99.90;;;;;;4953875;29;20271;-61
2021/09/28 08:04:23;;;;;;;8.57;3.03;;;13.00;99.90;;;;;;4953937;29;20201;-62
2021/09/28 08:06:50;;;;;;;11.80;2.80;;;13.10;24.50;;;;;;4953379;29;20213;-62
2021/09/28 08:09:17;;;;;;;10.40;2.83;;;13.20;1.00;;;;;;4953516;29;20257;-62
2021/09/28 08:11:43;;;;;;;7.63;2.53;;;13.30;1.00;;;;;;4953548;29;20236;-62
2021/09/28 08:14:11;;;;;;;18.13;3.03;;;13.40;99.90;;;;;;4953340;29;20225;-66
2021/09/28 08:16:38;;;;;;;7.37;2.67;;;13.40;99.90;;;;;;4953361;29;20212;-61
2021/09/28 08:19:06;;;;;;;8.33;2.33;;;13.50;99.90;;;;;;4953615;29;20252;-62
2021/09/28 08:21:33;;;;;;;11.57;2.50;;;13.60;81.90;;;;;;4953383;28;20245;-61
2021/09/28 08:24:01;;;;;;;12.13;2.73;;;13.60;1.00;;;;;;4953730;29;20213;-62
2021/09/28 08:29:15;;;;;;;7.00;2.13;;;13.70;99.90;;;;;;4953519;29;20243;-62
2021/09/28 08:31:44;;;;;;;11.63;2.10;;;13.80;1.00;;;;;;4953261;29;20216;-62
2021/09/28 08:34:11;;;;;;;10.60;1.83;;;13.80;99.90;;;;;;4952637;29;20244;-62
2021/09/28 08:36:38;;;;;;;8.83;2.03;;;13.90;1.00;;;;;;4952697;29;20209;-62
2021/09/28 08:39:08;;;;;;;9.27;2.20;;;13.90;99.90;;;;;;4952826;29;20639;-62
2021/09/28 08:41:37;;;;;;;5.90;2.10;;;14.00;1.00;;;;;;4953387;29;20589;-63
2021/09/28 08:44:04;;;;;;;11.20;2.20;;;14.10;99.90;;;;;;4953133;29;20690;-65
2021/09/28 08:46:32;;;;;;;7.77;2.00;;;14.10;99.90;;;;;;4953021;29;20243;-66
2021/09/28 08:48:59;;;;;;;6.77;1.80;;;14.20;92.70;;;;;;5018856;23;20233;-68
2021/09/28 08:51:26;;;;;;;11.17;2.13;;;14.20;99.90;;;;;;5031140;28;20268;-65
2021/09/28 08:53:52;;;;;;;9.17;2.30;;;14.20;1.00;;;;;;5031004;28;20325;-63
2021/09/28 08:56:19;;;;;;;12.43;2.53;;;14.30;99.90;;;;;;5031217;28;20264;-61
2021/09/28 08:58:57;;;;;;;9.07;1.87;;;14.30;1.00;;;;;;5031178;28;20742;-66
2021/09/28 09:01:24;;;;;;;7.97;2.10;;;14.40;10.20;;;;;;5031535;28;20205;-66
2021/09/28 09:03:53;;;;;;;6.50;1.80;;;14.40;99.90;;;;;;5031197;28;20198;-65
2021/09/28 09:06:20;;;;;;;6.70;1.83;;;14.50;99.90;;;;;;5030512;28;20229;-64
2021/09/28 09:08:49;;;;;;;6.73;1.90;;;14.50;99.90;;;;;;5031406;28;20696;-67
2021/09/28 09:11:18;;;;;;;5.43;1.87;;;14.60;47.50;;;;;;5031114;28;20206;-67
2021/09/28 09:13:47;;;;;;;11.23;2.57;;;14.70;41.20;;;;;;5030825;28;20271;-66
2021/09/28 09:16:15;;;;;;;10.33;2.40;;;14.70;99.90;;;;;;5030996;28;20209;-66
2021/09/28 09:18:44;;;;;;;7.37;1.97;;;14.70;99.90;;;;;;5030485;28;20223;-66
2021/09/28 09:21:14;;;;;;;11.93;2.70;;;14.70;99.90;;;;;;5030733;28;20214;-65
2021/09/28 09:23:42;;;;;;;8.10;2.10;;;14.80;94.10;;;;;;5031141;28;20214;-65
2021/09/28 09:26:12;;;;;;;8.73;2.47;;;14.80;99.90;;;;;;5030445;28;20341;-61
2021/09/28 09:28:42;;;;;;;11.33;2.40;;;14.90;1.00;;;;;;5030860;28;20733;-64
2021/09/28 09:31:12;;;;;;;14.03;2.87;;;14.90;99.90;;;;;;5030369;28;20221;-62
2021/09/28 09:33:39;;;;;;;8.27;2.47;;;15.00;8.40;;;;;;5031199;28;20264;-62
2021/09/28 09:36:07;;;;;;;9.60;1.93;;;15.00;1.00;;;;;;5034104;28;20214;-64
2021/09/28 09:38:42;;;;;;;9.60;1.80;;;15.10;1.00;;;;;;5034688;28;20226;-66
2021/09/28 09:41:09;;;;;;;6.63;2.00;;;15.20;1.00;;;;;;5034400;28;20237;-64
2021/09/28 09:43:36;;;;;;;7.17;1.73;;;15.30;1.00;;;;;;5034373;28;20293;-67
2021/09/28 09:46:11;;;;;;;6.27;1.60;;;15.30;1.00;;;;;;5034126;28;20241;-65
2021/09/28 09:48:39;;;;;;;7.53;2.03;;;15.30;99.90;;;;;;5033994;28;20242;-66
2021/09/28 09:51:08;;;;;;;16.07;2.30;;;15.40;1.00;;;;;;5034892;28;20207;-64
2021/09/28 09:53:37;;;;;;;11.77;2.20;;;15.40;99.90;;;;;;5035417;28;20631;-67
2021/09/28 09:56:05;;;;;;;8.83;1.57;;;15.50;99.90;;;;;;5035319;28;20264;-64
2021/09/28 09:58:32;;;;;;;13.90;2.00;;;15.50;99.90;;;;;;5034649;28;20713;-69
2021/09/28 10:00:59;;;;;;;9.17;1.80;;;15.50;99.90;;;;;;5034135;28;20209;-67
2021/09/28 10:03:27;;;;;;;7.93;1.90;;;15.50;99.90;;;;;;5034114;28;20710;-65
2021/09/28 10:05:54;;;;;;;7.60;1.70;;;15.50;99.90;;;;;;5034178;28;20241;-63
2021/09/28 10:08:21;;;;;;;11.97;2.00;;;15.60;99.90;;;;;;5033726;28;20231;-63
2021/09/28 10:10:56;;;;;;;8.57;1.70;;;15.70;99.90;;;;;;5033272;28;20618;-60
2021/09/28 10:13:51;;;;;;;10.33;1.80;;;15.80;99.90;;;;;;5034330;28;20230;-62
2021/09/28 10:16:39;;;;;;;6.67;1.67;;;15.90;1.00;;;;;;5033824;28;20412;-62
2021/09/28 10:19:42;;;;;;;10.30;2.17;;;16.00;99.90;;;;;;5028973;28;20264;-61
2021/09/28 10:22:45;;;;;;;9.30;1.73;;;16.00;87.70;;;;;;5033669;28;20609;-63
2021/09/28 10:25:35;;;;;;;8.03;1.57;;;16.00;84.80;;;;;;5032698;28;20293;-64
2021/09/28 10:28:38;;;;;;;6.57;1.70;;;16.10;99.90;;;;;;5033476;28;20265;-65
2021/09/28 10:31:11;;;;;;;8.57;1.80;;;16.30;99.90;;;;;;5033287;28;20210;-65
2021/09/28 10:33:39;;;;;;;11.27;2.10;;;16.40;99.90;;;;;;5033357;28;20233;-65
2021/09/28 10:36:11;;;;;;;9.83;2.07;;;16.60;99.90;;;;;;5033488;28;20213;-65
2021/09/28 10:38:43;;;;;;;9.93;1.80;;;16.70;1.00;;;;;;5033561;28;20236;-63
2021/09/28 10:41:30;;;;;;;9.03;1.83;;;16.60;1.00;;;;;;5033093;28;20260;-63
2021/09/28 10:44:43;;;;;;;13.13;2.10;;;16.70;1.00;;;;;;5033190;28;20198;-64
2021/09/28 10:47:46;;;;;;;8.97;1.93;;;16.70;1.00;;;;;;5032126;28;20272;-63
2021/09/28 10:50:31;;;;;;;10.87;1.60;;;16.60;1.00;;;;;;5032879;28;20283;-63
2021/09/28 10:53:00;;;;;;;8.47;1.73;;;16.70;1.00;;;;;;5033009;28;20678;-61
2021/09/28 10:55:38;;;;;;;10.60;1.40;;;16.60;1.00;;;;;;5032892;28;20679;-65
2021/09/28 10:58:12;;;;;;;9.30;1.97;;;16.60;1.00;;;;;;5033661;28;20268;-64
2021/09/28 11:01:13;;;;;;;10.43;1.83;;;16.70;1.00;;;;;;5026965;28;20286;-62
2021/09/28 11:03:48;;;;;;;8.63;1.70;;;16.80;1.00;;;;;;5013358;28;20199;-62
2021/09/28 11:06:16;;;;;;;6.30;2.03;;;16.90;1.00;;;;;;5012765;28;20210;-63
2021/09/28 11:08:42;;;;;;;9.13;1.70;;;17.00;1.00;;;;;;5012953;28;20257;-63
2021/09/28 11:11:10;;;;;;;9.83;1.90;;;17.00;1.00;;;;;;5012585;28;20261;-64
2021/09/28 11:13:40;;;;;;;10.17;1.97;;;17.10;1.00;;;;;;5012995;28;20725;-63
2021/09/28 11:16:09;;;;;;;9.60;1.53;;;17.20;1.00;;;;;;5012911;28;20203;-63
2021/09/28 11:18:39;;;;;;;6.23;1.57;;;17.30;1.00;;;;;;5013218;28;20850;-66
2021/09/28 11:21:10;;;;;;;10.60;1.97;;;17.30;1.00;;;;;;5012705;28;20272;-65
2021/09/28 11:23:38;;;;;;;7.63;1.70;;;17.30;1.00;;;;;;5012743;28;20690;-66
2021/09/28 11:26:06;;;;;;;6.93;1.50;;;17.40;1.00;;;;;;5012354;28;20693;-65
2021/09/28 11:28:33;;;;;;;10.30;1.70;;;17.40;1.00;;;;;;5012782;28;20642;-67
2021/09/28 11:31:03;;;;;;;6.43;1.87;;;17.40;1.00;;;;;;5012294;28;20675;-65
2021/09/28 11:33:38;;;;;;;9.13;1.90;;;17.50;1.00;;;;;;5012932;28;20210;-65
2021/09/28 11:36:07;;;;;;;7.43;2.07;;;17.60;1.00;;;;;;5012518;28;20210;-64
2021/09/28 11:38:38;;;;;;;7.83;2.20;;;17.50;1.00;;;;;;5012566;28;20648;-67
2021/09/28 11:41:07;;;;;;;9.10;2.33;;;17.50;1.00;;;;;;5012758;28;20214;-68
2021/09/28 11:43:35;;;;;;;8.70;2.20;;;17.30;1.00;;;;;;5012552;28;20214;-63
2021/09/28 11:46:04;;;;;;;7.70;2.03;;;17.40;1.00;;;;;;5012224;28;20211;-69
2021/09/28 11:48:38;;;;;;;8.73;1.67;;;17.40;1.00;;;;;;5012312;28;20646;-66
2021/09/28 11:51:07;;;;;;;6.70;1.90;;;17.40;1.00;;;;;;5012369;28;20215;-66
2021/09/28 11:53:39;;;;;;;8.67;2.33;;;17.40;1.00;;;;;;5012512;28;20203;-68
2021/09/28 11:56:07;;;;;;;11.90;2.40;;;17.40;1.00;;;;;;5012026;28;20751;-66
2021/09/28 12:01:06;;;;;;;7.07;1.93;;;17.50;1.00;;;;;;5010200;28;20218;-63
2021/09/28 12:03:35;;;;;;;6.87;1.53;;;17.50;1.00;;;;;;5012801;28;20210;-66
2021/09/28 12:06:07;;;;;;;6.83;1.43;;;17.20;1.00;;;;;;5012099;28;20207;-63
2021/09/28 12:08:35;;;;;;;12.47;1.63;;;17.30;1.00;;;;;;5012220;28;20598;-64
2021/09/28 12:11:06;;;;;;;5.83;1.30;;;17.20;1.00;;;;;;5011790;28;20238;-64
2021/09/28 12:13:33;;;;;;;5.60;1.43;;;17.20;1.00;;;;;;5012033;28;20219;-63
2021/09/28 12:16:12;;;;;;;9.43;1.67;;;17.20;1.00;;;;;;5011535;28;20218;-63
2021/09/28 12:18:39;;;;;;;7.87;1.80;;;17.30;1.00;;;;;;5012053;28;20227;-63
2021/09/28 12:21:19;;;;;;;8.80;1.60;;;17.30;1.00;;;;;;5011780;28;20273;-64
2021/09/28 12:23:48;;;;;;;7.10;1.73;;;17.30;1.00;;;;;;5012110;28;20203;-64
2021/09/28 12:26:29;;;;;;;7.63;2.00;;;17.40;1.00;;;;;;5011368;28;20268;-65
2021/09/28 12:28:56;;;;;;;5.80;1.37;;;17.50;1.00;;;;;;5011976;28;20272;-64
2021/09/28 12:31:37;;;;;;;8.03;1.47;;;17.50;1.00;;;;;;5011517;28;20722;-64
2021/09/28 12:34:04;;;;;;;8.47;1.47;;;17.40;1.00;;;;;;5011781;28;20269;-64
2021/09/28 12:36:31;;;;;;;7.83;1.47;;;17.50;1.00;;;;;;5011691;28;20281;-64
2021/09/28 12:39:26;;;;;;;5.83;1.60;;;17.60;1.00;;;;;;5011588;28;20297;-64
2021/09/28 12:42:07;;;;;;;7.73;2.10;;;17.70;1.00;;;;;;5011953;28;20191;-64
2021/09/28 12:44:35;;;;;;;4.67;1.40;;;17.70;1.00;;;;;;5011512;28;20655;-65
2021/09/28 12:47:37;;;;;;;7.60;1.60;;;17.70;1.00;;;;;;5011290;28;20261;-65
2021/09/28 12:50:24;;;;;;;6.70;1.80;;;17.60;1.00;;;;;;5006232;28;20222;-64
2021/09/28 12:52:56;;;;;;;6.83;2.00;;;17.50;1.00;;;;;;5011782;28;20218;-66
2021/09/28 12:55:22;;;;;;;6.37;1.70;;;17.50;1.00;;;;;;5011723;28;20231;-69
2021/09/28 12:57:51;;;;;;;5.43;1.50;;;17.60;1.00;;;;;;5011932;28;20231;-69